PWSweather.com
Personal Weather Stations
Station Observations
AF1HS
North Haven, CT 06473

North Haven, CT 06473

Lat: 41.3733, Lon: -72.8413

Elevation: 85.3

Station Type: Oregon Scientific WMR968

http://www.af1hs.com/wx/index.php

High Low Average
Temperature 23.4°F-4.8°C 4.8°F-15.1°C 12.8°F-10.7°C
Dew Point 2.1°F-16.6°C -13.3°F-25.2°C -6.3°F-21.3°C
Winds 3.5 mph 5.6 kmh Calm Calm 1.0 mph SW1.6 kmh SW
Wind Gusts 8.1 mph13.0 kmh -- 2.0 mph3.2 kmh
Humidity 45% 39% 42%
Pressure 30.43 in1030.5 mb 30.31 in1026.4 mb -
Precipitation 0.00 in0.0 mm - -
Hour Temp Dew Point Humidity Winds Wind Gusts Pressure Precip Precip Rate Daily Precip Total
12:00 AM 7.3°F-13.7°C -11.0°F-23.9°C 42% 1.2 mph SW1.9 kmh SW 3.5 mph5.6 kmh 30.37 in1028.4 mb - 0.00 in0.0 mm 0.00 in0.0 mm
12:10 AM 7.3°F-13.7°C -11.0°F-23.9°C 42% 2.3 mph SW3.7 kmh SW 8.1 mph13.0 kmh 30.37 in1028.4 mb - 0.00 in0.0 mm 0.00 in0.0 mm
12:20 AM 7.5°F-13.6°C -10.8°F-23.8°C 42% 1.2 mph SW1.9 kmh SW 3.5 mph5.6 kmh 30.37 in1028.4 mb - 0.00 in0.0 mm 0.00 in0.0 mm
12:30 AM 7.2°F-13.8°C -11.1°F-23.9°C 42% Calm Calm -- 30.37 in1028.4 mb - 0.00 in0.0 mm 0.00 in0.0 mm
12:40 AM 7.0°F-13.9°C -11.3°F-24.1°C 42% Calm Calm -- 30.37 in1028.4 mb - 0.00 in0.0 mm 0.00 in0.0 mm
12:50 AM 7.2°F-13.8°C -11.2°F-24.0°C 42% 1.2 mph SW1.9 kmh SW 3.5 mph5.6 kmh 30.37 in1028.4 mb - 0.00 in0.0 mm 0.00 in0.0 mm
01:00 AM 7.2°F-13.8°C -11.2°F-24.0°C 42% 2.3 mph SSW3.7 kmh SSW 3.5 mph5.6 kmh 30.37 in1028.4 mb - 0.00 in0.0 mm 0.00 in0.0 mm
01:10 AM 7.0°F-13.9°C -11.3°F-24.1°C 42% Calm Calm -- 30.37 in1028.4 mb - 0.00 in0.0 mm 0.00 in0.0 mm
01:20 AM 7.0°F-13.9°C -11.3°F-24.1°C 42% 1.2 mph SW1.9 kmh SW 5.8 mph9.3 kmh 30.37 in1028.4 mb - 0.00 in0.0 mm 0.00 in0.0 mm
01:30 AM 7.0°F-13.9°C -11.3°F-24.1°C 42% 1.2 mph SSW1.9 kmh SSW 3.5 mph5.6 kmh 30.40 in1029.5 mb - 0.00 in0.0 mm 0.00 in0.0 mm
01:40 AM 6.8°F-14.0°C -11.5°F-24.2°C 42% 1.2 mph WSW1.9 kmh WSW -- 30.37 in1028.4 mb - 0.00 in0.0 mm 0.00 in0.0 mm
01:50 AM 6.8°F-14.0°C -11.5°F-24.2°C 42% Calm Calm 2.3 mph3.7 kmh 30.37 in1028.4 mb - 0.00 in0.0 mm 0.00 in0.0 mm
02:00 AM 6.6°F-14.1°C -11.7°F-24.3°C 42% Calm Calm 3.5 mph5.6 kmh 30.37 in1028.4 mb - 0.00 in0.0 mm 0.00 in0.0 mm
02:10 AM 6.8°F-14.0°C -11.5°F-24.2°C 42% Calm Calm 3.5 mph5.6 kmh 30.37 in1028.4 mb - 0.00 in0.0 mm 0.00 in0.0 mm
02:20 AM 6.6°F-14.1°C -11.7°F-24.3°C 42% Calm Calm -- 30.37 in1028.4 mb - 0.00 in0.0 mm 0.00 in0.0 mm
02:30 AM 6.4°F-14.2°C -11.8°F-24.3°C 42% Calm Calm 3.5 mph5.6 kmh 30.37 in1028.4 mb - 0.00 in0.0 mm 0.00 in0.0 mm
02:40 AM 6.4°F-14.2°C -11.8°F-24.3°C 42% Calm Calm -- 30.37 in1028.4 mb - 0.00 in0.0 mm 0.00 in0.0 mm
02:50 AM 6.3°F-14.3°C -11.9°F-24.4°C 42% 2.3 mph SW3.7 kmh SW 3.5 mph5.6 kmh 30.37 in1028.4 mb - 0.00 in0.0 mm 0.00 in0.0 mm
03:00 AM 6.3°F-14.3°C -12.0°F-24.4°C 42% 1.2 mph WSW1.9 kmh WSW 3.5 mph5.6 kmh 30.40 in1029.5 mb - 0.00 in0.0 mm 0.00 in0.0 mm
03:10 AM 6.3°F-14.3°C -12.0°F-24.4°C 42% 3.5 mph SW5.6 kmh SW 5.8 mph9.3 kmh 30.40 in1029.5 mb - 0.00 in0.0 mm 0.00 in0.0 mm
03:20 AM 6.1°F-14.4°C -12.1°F-24.5°C 42% 3.5 mph SW5.6 kmh SW 3.5 mph5.6 kmh 30.40 in1029.5 mb - 0.00 in0.0 mm 0.00 in0.0 mm
03:30 AM 6.1°F-14.4°C -12.1°F-24.5°C 42% 2.3 mph S3.7 kmh S 5.8 mph9.3 kmh 30.40 in1029.5 mb - 0.00 in0.0 mm 0.00 in0.0 mm
03:40 AM 6.1°F-14.4°C -12.1°F-24.5°C 42% 1.2 mph SW1.9 kmh SW 3.5 mph5.6 kmh 30.37 in1028.4 mb - 0.00 in0.0 mm 0.00 in0.0 mm
03:50 AM 6.1°F-14.4°C -12.1°F-24.5°C 42% 3.5 mph SSW5.6 kmh SSW 5.8 mph9.3 kmh 30.37 in1028.4 mb - 0.00 in0.0 mm 0.00 in0.0 mm
04:00 AM 6.1°F-14.4°C -12.1°F-24.5°C 42% Calm Calm 3.5 mph5.6 kmh 30.37 in1028.4 mb - 0.00 in0.0 mm 0.00 in0.0 mm
04:10 AM 5.6°F-14.7°C -12.6°F-24.8°C 42% 3.5 mph NW5.6 kmh NW 3.5 mph5.6 kmh 30.37 in1028.4 mb - 0.00 in0.0 mm 0.00 in0.0 mm
04:20 AM 5.6°F-14.7°C -12.6°F-24.8°C 42% Calm Calm -- 30.37 in1028.4 mb - 0.00 in0.0 mm 0.00 in0.0 mm
04:30 AM 5.5°F-14.7°C -12.6°F-24.8°C 42% 1.2 mph W1.9 kmh W 3.5 mph5.6 kmh 30.40 in1029.5 mb - 0.00 in0.0 mm 0.00 in0.0 mm
04:40 AM 5.6°F-14.7°C -12.6°F-24.8°C 42% Calm Calm -- 30.40 in1029.5 mb - 0.00 in0.0 mm 0.00 in0.0 mm
04:50 AM 5.5°F-14.7°C -12.6°F-24.8°C 42% 3.5 mph SW5.6 kmh SW 8.1 mph13.0 kmh 30.40 in1029.5 mb - 0.00 in0.0 mm 0.00 in0.0 mm
05:00 AM 5.5°F-14.7°C -12.6°F-24.8°C 42% 1.2 mph S1.9 kmh S -- 30.40 in1029.5 mb - 0.00 in0.0 mm 0.00 in0.0 mm
05:10 AM 5.5°F-14.7°C -12.6°F-24.8°C 42% Calm Calm 3.5 mph5.6 kmh 30.40 in1029.5 mb - 0.00 in0.0 mm 0.00 in0.0 mm
05:20 AM 5.4°F-14.8°C -12.8°F-24.9°C 42% Calm Calm 2.3 mph3.7 kmh 30.40 in1029.5 mb - 0.00 in0.0 mm 0.00 in0.0 mm
05:30 AM 5.2°F-14.9°C -13.0°F-25.0°C 42% 2.3 mph NW3.7 kmh NW 3.5 mph5.6 kmh 30.40 in1029.5 mb - 0.00 in0.0 mm 0.00 in0.0 mm
05:40 AM 5.2°F-14.9°C -13.0°F-25.0°C 42% 1.2 mph NW1.9 kmh NW 3.5 mph5.6 kmh 30.40 in1029.5 mb - 0.00 in0.0 mm 0.00 in0.0 mm
05:50 AM 5.4°F-14.8°C -12.8°F-24.9°C 42% Calm Calm 2.3 mph3.7 kmh 30.40 in1029.5 mb - 0.00 in0.0 mm 0.00 in0.0 mm
06:00 AM 5.2°F-14.9°C -12.9°F-24.9°C 42% 1.2 mph WNW1.9 kmh WNW 5.8 mph9.3 kmh 30.40 in1029.5 mb - 0.00 in0.0 mm 0.00 in0.0 mm
06:10 AM 5.2°F-14.9°C -13.0°F-25.0°C 42% 2.3 mph W3.7 kmh W 3.5 mph5.6 kmh 30.40 in1029.5 mb - 0.00 in0.0 mm 0.00 in0.0 mm
06:20 AM 5.2°F-14.9°C -13.0°F-25.0°C 42% 1.2 mph W1.9 kmh W 5.8 mph9.3 kmh 30.40 in1029.5 mb - 0.00 in0.0 mm 0.00 in0.0 mm
06:30 AM 5.2°F-14.9°C -13.0°F-25.0°C 42% 2.3 mph WNW3.7 kmh WNW 3.5 mph5.6 kmh 30.40 in1029.5 mb - 0.00 in0.0 mm 0.00 in0.0 mm
06:40 AM 5.1°F-14.9°C -13.0°F-25.0°C 42% 2.3 mph WNW3.7 kmh WNW 3.5 mph5.6 kmh 30.40 in1029.5 mb - 0.00 in0.0 mm 0.00 in0.0 mm
06:50 AM 5.2°F-14.9°C -13.0°F-25.0°C 42% Calm Calm -- 30.40 in1029.5 mb - 0.00 in0.0 mm 0.00 in0.0 mm
07:00 AM 4.8°F-15.1°C -13.3°F-25.2°C 42% Calm Calm 2.3 mph3.7 kmh 30.40 in1029.5 mb - 0.00 in0.0 mm 0.00 in0.0 mm
07:10 AM 4.8°F-15.1°C -13.3°F-25.2°C 42% 2.3 mph WNW3.7 kmh WNW 3.5 mph5.6 kmh 30.40 in1029.5 mb - 0.00 in0.0 mm 0.00 in0.0 mm
07:20 AM 5.1°F-14.9°C -13.0°F-25.0°C 42% Calm Calm -- 30.40 in1029.5 mb - 0.00 in0.0 mm 0.00 in0.0 mm
07:30 AM 5.3°F-14.8°C -12.9°F-24.9°C 42% Calm Calm -- 30.40 in1029.5 mb - 0.00 in0.0 mm 0.00 in0.0 mm
07:40 AM 5.4°F-14.8°C -12.8°F-24.9°C 42% Calm Calm -- 30.40 in1029.5 mb - 0.00 in0.0 mm 0.00 in0.0 mm
07:50 AM 5.8°F-14.6°C -12.4°F-24.7°C 42% 2.3 mph WNW3.7 kmh WNW 4.6 mph7.4 kmh 30.40 in1029.5 mb - 0.00 in0.0 mm 0.00 in0.0 mm
08:00 AM 6.4°F-14.2°C -11.8°F-24.3°C 42% 3.5 mph WNW5.6 kmh WNW 3.5 mph5.6 kmh 30.43 in1030.5 mb - 0.00 in0.0 mm 0.00 in0.0 mm
08:10 AM 8.3°F-13.2°C -10.2°F-23.4°C 42% 1.2 mph WNW1.9 kmh WNW 4.6 mph7.4 kmh 30.43 in1030.5 mb - 0.00 in0.0 mm 0.00 in0.0 mm
08:20 AM 10.6°F-11.9°C -8.0°F-22.2°C 42% 2.3 mph WNW3.7 kmh WNW 3.5 mph5.6 kmh 30.43 in1030.5 mb - 0.00 in0.0 mm 0.00 in0.0 mm
08:30 AM 10.6°F-11.9°C -8.0°F-22.2°C 42% 2.3 mph WNW3.7 kmh WNW 4.6 mph7.4 kmh 30.43 in1030.5 mb - 0.00 in0.0 mm 0.00 in0.0 mm
08:40 AM 11.9°F-11.2°C -6.8°F-21.6°C 42% 3.5 mph WNW5.6 kmh WNW 3.5 mph5.6 kmh 30.43 in1030.5 mb - 0.00 in0.0 mm 0.00 in0.0 mm
08:50 AM 12.8°F-10.7°C -6.5°F-21.4°C 41% 3.5 mph WNW5.6 kmh WNW 3.5 mph5.6 kmh 30.43 in1030.5 mb - 0.00 in0.0 mm 0.00 in0.0 mm
09:00 AM 11.8°F-11.2°C -6.9°F-21.6°C 42% 3.5 mph WNW5.6 kmh WNW 3.5 mph5.6 kmh 30.43 in1030.5 mb - 0.00 in0.0 mm 0.00 in0.0 mm
09:10 AM 14.3°F-9.8°C -5.2°F-20.7°C 41% Calm Calm 3.5 mph5.6 kmh 30.43 in1030.5 mb - 0.00 in0.0 mm 0.00 in0.0 mm
09:20 AM 14.7°F-9.6°C -4.8°F-20.4°C 41% 3.5 mph N5.6 kmh N 3.5 mph5.6 kmh 30.43 in1030.5 mb - 0.00 in0.0 mm 0.00 in0.0 mm
09:30 AM 17.0°F-8.3°C -3.2°F-19.6°C 40% 3.5 mph NNW5.6 kmh NNW 5.8 mph9.3 kmh 30.43 in1030.5 mb - 0.00 in0.0 mm 0.00 in0.0 mm
09:40 AM 19.3°F-7.1°C -1.1°F-18.4°C 40% 1.2 mph NW1.9 kmh NW 5.8 mph9.3 kmh 30.43 in1030.5 mb - 0.00 in0.0 mm 0.00 in0.0 mm
09:50 AM 19.1°F-7.2°C -1.3°F-18.5°C 40% Calm Calm 2.3 mph3.7 kmh 30.43 in1030.5 mb - 0.00 in0.0 mm 0.00 in0.0 mm
10:00 AM 20.5°F-6.4°C -0.1°F-17.8°C 40% Calm Calm -- 30.43 in1030.5 mb - 0.00 in0.0 mm 0.00 in0.0 mm
10:10 AM 21.0°F-6.1°C 0.4°F-17.6°C 40% 1.2 mph N1.9 kmh N 3.5 mph5.6 kmh 30.43 in1030.5 mb - 0.00 in0.0 mm 0.00 in0.0 mm
10:20 AM 20.3°F-6.5°C -0.2°F-17.9°C 40% 1.2 mph N1.9 kmh N 3.5 mph5.6 kmh 30.43 in1030.5 mb - 0.00 in0.0 mm 0.00 in0.0 mm
10:30 AM 19.3°F-7.1°C -1.1°F-18.4°C 40% 3.5 mph N5.6 kmh N 3.5 mph5.6 kmh 30.43 in1030.5 mb - 0.00 in0.0 mm 0.00 in0.0 mm
10:40 AM 18.0°F-7.8°C -2.3°F-19.1°C 40% 2.3 mph NNW3.7 kmh NNW 4.6 mph7.4 kmh 30.40 in1029.5 mb - 0.00 in0.0 mm 0.00 in0.0 mm
10:50 AM 19.0°F-7.2°C -1.4°F-18.6°C 40% 3.5 mph N5.6 kmh N 4.6 mph7.4 kmh 30.40 in1029.5 mb - 0.00 in0.0 mm 0.00 in0.0 mm
11:00 AM 20.4°F-6.4°C -0.1°F-17.8°C 40% Calm Calm -- 30.43 in1030.5 mb - 0.00 in0.0 mm 0.00 in0.0 mm
11:10 AM 20.3°F-6.5°C -0.2°F-17.9°C 40% 1.2 mph E1.9 kmh E 2.3 mph3.7 kmh 30.43 in1030.5 mb - 0.00 in0.0 mm 0.00 in0.0 mm
11:20 AM 22.3°F-5.4°C 1.0°F-17.2°C 39% Calm Calm -- 30.43 in1030.5 mb - 0.00 in0.0 mm 0.00 in0.0 mm
11:30 AM 22.6°F-5.2°C 1.4°F-17.0°C 39% 1.2 mph S1.9 kmh S 3.5 mph5.6 kmh 30.43 in1030.5 mb - 0.00 in0.0 mm 0.00 in0.0 mm
11:40 AM 21.5°F-5.8°C 0.9°F-17.3°C 40% 1.2 mph SW1.9 kmh SW 4.6 mph7.4 kmh 30.40 in1029.5 mb - 0.00 in0.0 mm 0.00 in0.0 mm
11:50 AM 23.4°F-4.8°C 2.1°F-16.6°C 39% Calm Calm 5.8 mph9.3 kmh 30.40 in1029.5 mb - 0.00 in0.0 mm 0.00 in0.0 mm
12:00 PM 22.8°F-5.1°C 1.5°F-16.9°C 39% 3.5 mph WSW5.6 kmh WSW 3.5 mph5.6 kmh 30.40 in1029.5 mb - 0.00 in0.0 mm 0.00 in0.0 mm
12:10 PM 22.8°F-5.1°C 1.5°F-16.9°C 39% Calm Calm -- 30.40 in1029.5 mb - 0.00 in0.0 mm 0.00 in0.0 mm
12:20 PM 22.6°F-5.2°C 1.4°F-17.0°C 39% 3.5 mph SW5.6 kmh SW 5.8 mph9.3 kmh 30.40 in1029.5 mb - 0.00 in0.0 mm 0.00 in0.0 mm
12:30 PM 22.6°F-5.2°C 1.4°F-17.0°C 39% 1.2 mph WSW1.9 kmh WSW 5.8 mph9.3 kmh 30.37 in1028.4 mb - 0.00 in0.0 mm 0.00 in0.0 mm
12:40 PM 22.2°F-5.4°C 0.9°F-17.3°C 39% Calm Calm 3.5 mph5.6 kmh 30.37 in1028.4 mb - 0.00 in0.0 mm 0.00 in0.0 mm
12:50 PM 21.3°F-5.9°C 0.7°F-17.4°C 40% 2.3 mph SSW3.7 kmh SSW 3.5 mph5.6 kmh 30.37 in1028.4 mb - 0.00 in0.0 mm 0.00 in0.0 mm
01:00 PM 22.1°F-5.5°C 0.9°F-17.3°C 39% 2.3 mph SW3.7 kmh SW 5.8 mph9.3 kmh 30.37 in1028.4 mb - 0.00 in0.0 mm 0.00 in0.0 mm
01:10 PM 22.4°F-5.3°C 1.1°F-17.2°C 39% 2.3 mph WSW3.7 kmh WSW 4.6 mph7.4 kmh 30.37 in1028.4 mb - 0.00 in0.0 mm 0.00 in0.0 mm
01:20 PM 22.1°F-5.5°C 0.9°F-17.3°C 39% 2.3 mph SE3.7 kmh SE 5.8 mph9.3 kmh 30.37 in1028.4 mb - 0.00 in0.0 mm 0.00 in0.0 mm
01:30 PM 22.6°F-5.2°C 1.3°F-17.1°C 39% 2.3 mph SW3.7 kmh SW 3.5 mph5.6 kmh 30.34 in1027.4 mb - 0.00 in0.0 mm 0.00 in0.0 mm
01:40 PM 23.1°F-4.9°C 1.8°F-16.8°C 39% 3.5 mph ESE5.6 kmh ESE 5.8 mph9.3 kmh 30.34 in1027.4 mb - 0.00 in0.0 mm 0.00 in0.0 mm
01:50 PM 22.3°F-5.4°C 1.0°F-17.2°C 39% 2.3 mph S3.7 kmh S 3.5 mph5.6 kmh 30.34 in1027.4 mb - 0.00 in0.0 mm 0.00 in0.0 mm
02:00 PM 21.9°F-5.6°C 0.7°F-17.4°C 39% 2.3 mph SW3.7 kmh SW 5.8 mph9.3 kmh 30.34 in1027.4 mb - 0.00 in0.0 mm 0.00 in0.0 mm
02:10 PM 21.4°F-5.9°C 0.8°F-17.3°C 40% Calm Calm 2.3 mph3.7 kmh 30.34 in1027.4 mb - 0.00 in0.0 mm 0.00 in0.0 mm
02:20 PM 20.7°F-6.3°C 0.1°F-17.7°C 40% Calm Calm -- 30.34 in1027.4 mb - 0.00 in0.0 mm 0.00 in0.0 mm
02:30 PM 21.5°F-5.8°C 0.9°F-17.3°C 40% 3.5 mph SE5.6 kmh SE 5.8 mph9.3 kmh 30.34 in1027.4 mb - 0.00 in0.0 mm 0.00 in0.0 mm
02:40 PM 20.7°F-6.3°C 0.1°F-17.7°C 40% 2.3 mph SSW3.7 kmh SSW 4.6 mph7.4 kmh 30.34 in1027.4 mb - 0.00 in0.0 mm 0.00 in0.0 mm
02:50 PM 21.0°F-6.1°C 0.4°F-17.6°C 40% 3.5 mph SSW5.6 kmh SSW 5.8 mph9.3 kmh 30.34 in1027.4 mb - 0.00 in0.0 mm 0.00 in0.0 mm
03:00 PM 20.6°F-6.3°C 0.1°F-17.7°C 40% Calm Calm -- 30.31 in1026.4 mb - 0.00 in0.0 mm 0.00 in0.0 mm
03:10 PM 20.9°F-6.2°C 0.3°F-17.6°C 40% 3.5 mph SSW5.6 kmh SSW 5.8 mph9.3 kmh 30.31 in1026.4 mb - 0.00 in0.0 mm 0.00 in0.0 mm
03:20 PM 20.7°F-6.3°C 0.1°F-17.7°C 40% 1.2 mph S1.9 kmh S 2.3 mph3.7 kmh 30.31 in1026.4 mb - 0.00 in0.0 mm 0.00 in0.0 mm
03:30 PM 20.7°F-6.3°C 0.1°F-17.7°C 40% 3.5 mph SSE5.6 kmh SSE 4.6 mph7.4 kmh 30.31 in1026.4 mb - 0.00 in0.0 mm 0.00 in0.0 mm
03:40 PM 20.8°F-6.2°C 0.3°F-17.6°C 40% 1.2 mph SW1.9 kmh SW 3.5 mph5.6 kmh 30.31 in1026.4 mb - 0.00 in0.0 mm 0.00 in0.0 mm
03:50 PM 21.2°F-6.0°C 0.6°F-17.4°C 40% Calm Calm -- 30.31 in1026.4 mb - 0.00 in0.0 mm 0.00 in0.0 mm
04:00 PM 20.7°F-6.3°C 0.1°F-17.7°C 40% 3.5 mph S5.6 kmh S 3.5 mph5.6 kmh 30.31 in1026.4 mb - 0.00 in0.0 mm 0.00 in0.0 mm
04:10 PM 20.3°F-6.5°C -0.3°F-17.9°C 40% 1.2 mph SW1.9 kmh SW 4.6 mph7.4 kmh 30.31 in1026.4 mb - 0.00 in0.0 mm 0.00 in0.0 mm
04:20 PM 19.2°F-7.1°C -1.2°F-18.4°C 40% 1.2 mph S1.9 kmh S 3.5 mph5.6 kmh 30.31 in1026.4 mb - 0.00 in0.0 mm 0.00 in0.0 mm
04:30 PM 18.5°F-7.5°C -1.8°F-18.8°C 40% 1.2 mph SSW1.9 kmh SSW 3.5 mph5.6 kmh 30.31 in1026.4 mb - 0.00 in0.0 mm 0.00 in0.0 mm
04:40 PM 18.0°F-7.8°C -2.3°F-19.1°C 40% 3.5 mph SW5.6 kmh SW 3.5 mph5.6 kmh 30.31 in1026.4 mb - 0.00 in0.0 mm 0.00 in0.0 mm
04:50 PM 18.0°F-7.8°C -2.3°F-19.1°C 40% Calm Calm -- 30.31 in1026.4 mb - 0.00 in0.0 mm 0.00 in0.0 mm
05:00 PM 17.8°F-7.9°C -2.5°F-19.2°C 40% Calm Calm -- 30.31 in1026.4 mb - 0.00 in0.0 mm 0.00 in0.0 mm
05:10 PM 18.0°F-7.8°C -2.3°F-19.1°C 40% Calm Calm -- 30.31 in1026.4 mb - 0.00 in0.0 mm 0.00 in0.0 mm
05:20 PM 17.4°F-8.1°C -2.8°F-19.3°C 40% Calm Calm -- 30.31 in1026.4 mb - 0.00 in0.0 mm 0.00 in0.0 mm
05:30 PM 17.1°F-8.3°C -3.2°F-19.6°C 40% Calm Calm -- 30.31 in1026.4 mb - 0.00 in0.0 mm 0.00 in0.0 mm
05:40 PM 16.9°F-8.4°C -3.3°F-19.6°C 40% Calm Calm -- 30.31 in1026.4 mb - 0.00 in0.0 mm 0.00 in0.0 mm
05:50 PM 16.9°F-8.4°C -3.3°F-19.6°C 40% Calm Calm -- 30.31 in1026.4 mb - 0.00 in0.0 mm 0.00 in0.0 mm
06:00 PM 16.7°F-8.5°C -3.5°F-19.7°C 40% Calm Calm -- 30.31 in1026.4 mb - 0.00 in0.0 mm 0.00 in0.0 mm
06:10 PM 16.7°F-8.5°C -3.5°F-19.7°C 40% Calm Calm -- 30.34 in1027.4 mb - 0.00 in0.0 mm 0.00 in0.0 mm
06:20 PM 16.3°F-8.7°C -3.8°F-19.9°C 40% Calm Calm -- 30.34 in1027.4 mb - 0.00 in0.0 mm 0.00 in0.0 mm
06:30 PM 16.1°F-8.8°C -3.5°F-19.7°C 41% Calm Calm -- 30.34 in1027.4 mb - 0.00 in0.0 mm 0.00 in0.0 mm
06:40 PM 15.4°F-9.2°C -4.1°F-20.1°C 41% Calm Calm -- 30.34 in1027.4 mb - 0.00 in0.0 mm 0.00 in0.0 mm
06:50 PM 15.1°F-9.4°C -4.4°F-20.2°C 41% Calm Calm -- 30.34 in1027.4 mb - 0.00 in0.0 mm 0.00 in0.0 mm
07:00 PM 14.1°F-9.9°C -5.3°F-20.7°C 41% Calm Calm -- 30.34 in1027.4 mb - 0.00 in0.0 mm 0.00 in0.0 mm
07:10 PM 14.0°F-10.0°C -5.4°F-20.8°C 41% Calm Calm -- 30.34 in1027.4 mb - 0.00 in0.0 mm 0.00 in0.0 mm
07:20 PM 14.4°F-9.8°C -5.1°F-20.6°C 41% Calm Calm -- 30.34 in1027.4 mb - 0.00 in0.0 mm 0.00 in0.0 mm
07:30 PM 14.4°F-9.8°C -5.1°F-20.6°C 41% Calm Calm -- 30.34 in1027.4 mb - 0.00 in0.0 mm 0.00 in0.0 mm
07:40 PM 13.9°F-10.1°C -5.5°F-20.8°C 41% Calm Calm -- 30.34 in1027.4 mb - 0.00 in0.0 mm 0.00 in0.0 mm
07:50 PM 13.2°F-10.4°C -6.2°F-21.2°C 41% Calm Calm -- 30.34 in1027.4 mb - 0.00 in0.0 mm 0.00 in0.0 mm
08:00 PM 12.7°F-10.7°C -6.6°F-21.4°C 41% Calm Calm -- 30.34 in1027.4 mb - 0.00 in0.0 mm 0.00 in0.0 mm
08:10 PM 12.7°F-10.7°C -5.1°F-20.6°C 44% Calm Calm -- 30.34 in1027.4 mb - 0.00 in0.0 mm 0.00 in0.0 mm
08:20 PM 12.3°F-10.9°C -5.5°F-20.8°C 44% Calm Calm -- 30.34 in1027.4 mb - 0.00 in0.0 mm 0.00 in0.0 mm
08:30 PM 11.1°F-11.6°C -6.6°F-21.4°C 44% Calm Calm -- 30.34 in1027.4 mb - 0.00 in0.0 mm 0.00 in0.0 mm
08:40 PM 10.9°F-11.7°C -6.8°F-21.6°C 44% Calm Calm -- 30.34 in1027.4 mb - 0.00 in0.0 mm 0.00 in0.0 mm
08:50 PM 10.4°F-12.0°C -6.8°F-21.6°C 45% Calm Calm -- 30.34 in1027.4 mb - 0.00 in0.0 mm 0.00 in0.0 mm
09:00 PM 10.4°F-12.0°C -6.8°F-21.6°C 45% Calm Calm -- 30.34 in1027.4 mb - 0.00 in0.0 mm 0.00 in0.0 mm
09:10 PM 10.2°F-12.1°C -6.9°F-21.6°C 45% Calm Calm -- 30.34 in1027.4 mb - 0.00 in0.0 mm 0.00 in0.0 mm
09:20 PM 9.9°F-12.3°C -7.2°F-21.8°C 45% Calm Calm -- 30.34 in1027.4 mb - 0.00 in0.0 mm 0.00 in0.0 mm
09:30 PM 10.0°F-12.2°C -7.1°F-21.7°C 45% Calm Calm -- 30.34 in1027.4 mb - 0.00 in0.0 mm 0.00 in0.0 mm
09:40 PM 10.0°F-12.2°C -7.1°F-21.7°C 45% Calm Calm -- 30.34 in1027.4 mb - 0.00 in0.0 mm 0.00 in0.0 mm
09:50 PM 9.5°F-12.5°C -7.6°F-22.0°C 45% Calm Calm -- 30.34 in1027.4 mb - 0.00 in0.0 mm 0.00 in0.0 mm
10:00 PM 9.6°F-12.4°C -7.5°F-21.9°C 45% Calm Calm -- 30.37 in1028.4 mb - 0.00 in0.0 mm 0.00 in0.0 mm
10:10 PM 9.3°F-12.6°C -7.8°F-22.1°C 45% Calm Calm -- 30.37 in1028.4 mb - 0.00 in0.0 mm 0.00 in0.0 mm
10:20 PM 9.0°F-12.8°C -8.1°F-22.3°C 45% Calm Calm -- 30.37 in1028.4 mb - 0.00 in0.0 mm 0.00 in0.0 mm
10:30 PM 8.8°F-12.9°C -8.3°F-22.4°C 45% Calm Calm -- 30.37 in1028.4 mb - 0.00 in0.0 mm 0.00 in0.0 mm
10:40 PM 8.4°F-13.1°C -8.6°F-22.6°C 45% Calm Calm -- 30.37 in1028.4 mb - 0.00 in0.0 mm 0.00 in0.0 mm
10:50 PM 8.2°F-13.2°C -8.8°F-22.7°C 45% Calm Calm -- 30.37 in1028.4 mb - 0.00 in0.0 mm 0.00 in0.0 mm
11:00 PM 7.9°F-13.4°C -9.1°F-22.8°C 45% Calm Calm -- 30.37 in1028.4 mb - 0.00 in0.0 mm 0.00 in0.0 mm
11:10 PM 8.1°F-13.3°C -8.9°F-22.7°C 45% Calm Calm -- 30.37 in1028.4 mb - 0.00 in0.0 mm 0.00 in0.0 mm
11:20 PM 7.9°F-13.4°C -9.1°F-22.8°C 45% Calm Calm -- 30.37 in1028.4 mb - 0.00 in0.0 mm 0.00 in0.0 mm
11:30 PM 8.1°F-13.3°C -8.9°F-22.7°C 45% Calm Calm -- 30.37 in1028.4 mb - 0.00 in0.0 mm 0.00 in0.0 mm
11:40 PM 8.1°F-13.3°C -8.9°F-22.7°C 45% Calm Calm -- 30.37 in1028.4 mb - 0.00 in0.0 mm 0.00 in0.0 mm
11:50 PM 7.8°F-13.4°C -9.2°F-22.9°C 45% Calm Calm -- 30.37 in1028.4 mb - 0.00 in0.0 mm 0.00 in0.0 mm